createdAt,value
2022-12-09T00:04:43.741Z,32.85
2022-12-09T00:09:45.516Z,35.42
2022-12-09T00:14:47.227Z,28.20
2022-12-09T00:19:48.946Z,26.73
2022-12-09T00:24:50.936Z,22.35
2022-12-09T00:29:52.777Z,41.33
2022-12-09T00:34:54.499Z,22.58
2022-12-09T00:39:56.345Z,21.85
2022-12-09T00:44:58.427Z,17.25
2022-12-09T00:50:00.396Z,15.77
2022-12-09T00:55:02.810Z,21.88
2022-12-09T01:00:54.820Z,16.27
2022-12-09T01:05:56.654Z,14.18
2022-12-09T01:10:58.411Z,12.20
2022-12-09T01:16:00.191Z,11.00
2022-12-09T01:21:02.548Z,14.52
2022-12-09T01:26:05.602Z,14.73
2022-12-09T01:31:18.214Z,13.38
2022-12-09T01:36:23.342Z,16.85
2022-12-09T01:41:25.641Z,12.40
2022-12-09T01:46:27.517Z,13.48
2022-12-09T01:51:30.568Z,14.70
2022-12-09T01:56:35.956Z,17.45
2022-12-09T02:01:39.672Z,17.27
2022-12-09T02:06:41.520Z,17.40
2022-12-09T02:12:04.662Z,19.05
2022-12-09T02:17:26.346Z,17.08
2022-12-09T02:22:35.327Z,18.33
2022-12-09T02:28:12.967Z,18.88
2022-12-09T02:33:34.242Z,21.00
2022-12-09T02:38:41.126Z,19.42
2022-12-09T02:43:50.299Z,16.50
2022-12-09T02:48:59.413Z,18.13
2022-12-09T02:54:11.391Z,16.45
2022-12-09T02:59:14.161Z,20.73
2022-12-09T03:04:22.689Z,19.42
2022-12-09T03:09:32.976Z,18.67
2022-12-09T03:19:59.065Z,18.38
2022-12-09T03:25:06.985Z,18.63
2022-12-09T03:30:11.271Z,18.98
2022-12-09T03:35:22.597Z,18.98
2022-12-09T03:40:28.423Z,17.88
2022-12-09T03:45:32.460Z,16.85
2022-12-09T03:50:49.574Z,16.85
2022-12-09T03:56:00.604Z,18.00
2022-12-09T04:01:03.036Z,18.48
2022-12-09T04:06:04.856Z,17.05
2022-12-09T04:11:06.874Z,18.95
2022-12-09T04:16:10.061Z,19.33
2022-12-09T04:21:13.238Z,18.17
2022-12-09T04:26:19.856Z,19.10
2022-12-09T04:31:22.082Z,20.15
2022-12-09T04:36:23.855Z,21.50
2022-12-09T04:41:25.856Z,17.77
2022-12-09T04:46:27.699Z,20.70
2022-12-09T04:51:34.264Z,16.27
2022-12-09T04:56:41.760Z,18.42
2022-12-09T05:01:43.673Z,18.15
2022-12-09T05:06:45.580Z,20.45
2022-12-09T05:11:48.046Z,17.02
2022-12-09T05:16:50.186Z,17.60
2022-12-09T05:21:51.975Z,18.05
2022-12-09T05:26:53.737Z,18.05
2022-12-09T05:31:55.356Z,20.40
2022-12-09T05:36:57.285Z,22.98
2022-12-09T05:41:59.376Z,18.45
2022-12-09T05:47:01.524Z,24.00
2022-12-09T05:52:03.847Z,26.67
2022-12-09T05:57:05.893Z,18.83
2022-12-09T06:02:10.282Z,31.02
2022-12-09T06:07:12.502Z,33.03
2022-12-09T06:12:15.344Z,62.00
2022-12-09T06:17:17.928Z,25.50
2022-12-09T06:22:19.740Z,39.50
2022-12-09T06:27:21.776Z,22.10
2022-12-09T06:32:23.789Z,46.05
2022-12-09T06:37:25.739Z,40.50
2022-12-09T06:42:27.755Z,39.90
2022-12-09T06:47:29.770Z,35.58
2022-12-09T06:52:31.686Z,43.25
2022-12-09T06:57:33.459Z,23.33
2022-12-09T07:02:36.742Z,29.50
2022-12-09T07:07:39.590Z,25.58
2022-12-09T07:12:41.816Z,32.90
2022-12-09T07:17:43.977Z,31.13
2022-12-09T07:22:46.013Z,29.15
2022-12-09T07:27:47.836Z,34.97
2022-12-09T07:32:50.111Z,25.73
2022-12-09T07:37:52.260Z,28.95
2022-12-09T07:42:59.075Z,30.08
2022-12-09T07:48:01.701Z,33.58
2022-12-09T07:53:03.947Z,34.40
2022-12-09T07:58:05.887Z,31.95
2022-12-09T08:03:08.052Z,29.15
2022-12-09T08:08:10.105Z,31.30
2022-12-09T08:13:12.963Z,33.70
2022-12-09T08:18:14.959Z,27.33
2022-12-09T08:23:16.749Z,29.20
2022-12-09T08:28:18.704Z,27.38
2022-12-09T08:33:20.739Z,26.75
2022-12-09T08:38:22.801Z,26.83
2022-12-09T08:43:24.593Z,24.95
2022-12-09T08:48:26.500Z,23.35
2022-12-09T08:53:28.351Z,21.30
2022-12-09T08:58:31.416Z,27.58
2022-12-09T09:03:33.360Z,24.63
2022-12-09T09:08:36.173Z,24.23
2022-12-09T09:13:42.924Z,25.83
2022-12-09T09:18:45.555Z,27.13
2022-12-09T09:23:48.218Z,27.73
2022-12-09T09:28:50.974Z,27.80
2022-12-09T09:33:53.418Z,25.52
2022-12-09T09:38:57.405Z,25.10
2022-12-09T09:43:59.949Z,25.02
2022-12-09T09:49:03.980Z,28.33
2022-12-09T09:54:08.909Z,30.27
2022-12-09T09:59:21.293Z,28.67
2022-12-09T10:04:36.946Z,28.70
2022-12-09T10:09:48.967Z,32.08
2022-12-09T10:14:56.247Z,32.35
2022-12-09T10:20:28.666Z,31.58
2022-12-09T10:25:35.812Z,27.73
2022-12-09T10:30:44.206Z,26.25
2022-12-09T10:35:47.695Z,30.35
2022-12-09T10:41:39.592Z,31.27
2022-12-09T10:46:41.840Z,27.65
2022-12-09T10:51:49.540Z,31.33
2022-12-09T10:57:03.604Z,31.50
2022-12-09T11:02:08.949Z,31.60
2022-12-09T11:07:22.933Z,36.58
2022-12-09T11:12:30.907Z,32.28
2022-12-09T11:22:41.191Z,34.28
2022-12-09T11:27:48.913Z,31.75
2022-12-09T11:33:07.886Z,37.65
2022-12-09T11:38:36.364Z,33.40
2022-12-09T11:43:37.965Z,31.02
2022-12-09T11:49:01.340Z,34.33
2022-12-09T11:54:13.323Z,33.60
2022-12-09T11:59:24.124Z,33.33
2022-12-09T12:05:15.713Z,32.65
2022-12-09T12:10:34.942Z,34.20
2022-12-09T12:16:07.163Z,34.10
2022-12-09T12:21:26.548Z,32.45
2022-12-09T12:26:52.348Z,36.05
2022-12-09T12:32:02.543Z,37.75
2022-12-09T12:43:07.225Z,35.90
2022-12-09T12:48:33.114Z,31.58
2022-12-09T12:53:34.805Z,33.00
2022-12-09T12:58:42.499Z,31.90
2022-12-09T13:03:46.936Z,31.75
2022-12-09T13:09:01.428Z,32.65
2022-12-09T13:14:16.120Z,31.55
2022-12-09T13:19:28.414Z,30.83
2022-12-09T13:25:00.293Z,35.70
2022-12-09T13:30:09.956Z,30.33
2022-12-09T13:35:35.947Z,33.72
2022-12-09T13:40:39.132Z,28.40
2022-12-09T13:45:44.194Z,30.13
2022-12-09T13:50:49.394Z,29.83
2022-12-09T13:56:01.601Z,29.63
2022-12-09T14:01:12.374Z,31.80
2022-12-09T14:06:28.088Z,30.20
2022-12-09T14:11:49.821Z,31.25
2022-12-09T14:16:53.568Z,33.15
2022-12-09T14:22:21.053Z,33.10
2022-12-09T14:27:31.759Z,33.17
2022-12-09T14:32:52.407Z,34.58
2022-12-09T14:43:28.842Z,38.10
2022-12-09T14:48:39.138Z,39.00
2022-12-09T14:58:48.209Z,32.53
2022-12-09T15:04:02.647Z,36.58
2022-12-09T15:09:04.388Z,36.92
2022-12-09T15:14:27.680Z,39.65
2022-12-09T15:19:59.265Z,44.70
2022-12-09T15:24:54.448Z,38.97
2022-12-09T15:29:56.478Z,39.47
2022-12-09T15:35:21.042Z,40.13
2022-12-09T15:40:29.055Z,38.58
2022-12-09T15:45:38.147Z,41.88
2022-12-09T15:50:50.935Z,43.95
2022-12-09T15:56:07.965Z,37.67
2022-12-09T16:01:09.963Z,41.22
2022-12-09T16:06:11.999Z,41.05
2022-12-09T16:11:33.982Z,37.03
2022-12-09T16:16:44.308Z,38.15
2022-12-09T16:21:46.083Z,44.67
2022-12-09T16:26:51.486Z,40.17
2022-12-09T16:32:18.947Z,56.97
2022-12-09T16:37:35.705Z,48.72
2022-12-09T16:42:41.015Z,49.88
2022-12-09T16:47:44.982Z,36.13
2022-12-09T16:52:46.837Z,41.38
2022-12-09T16:57:51.575Z,43.13
2022-12-09T17:03:03.511Z,43.47
2022-12-09T17:08:05.370Z,47.30
2022-12-09T17:13:07.253Z,41.75
2022-12-09T17:18:10.218Z,46.10
2022-12-09T17:23:12.268Z,39.63
2022-12-09T17:28:14.186Z,43.40
2022-12-09T17:33:16.718Z,54.55
2022-12-09T17:38:18.995Z,40.92
2022-12-09T17:43:20.823Z,40.08
2022-12-09T17:48:22.612Z,47.08
2022-12-09T17:53:25.018Z,47.13
2022-12-09T17:58:26.762Z,38.53
2022-12-09T18:03:54.258Z,43.53
2022-12-09T18:08:51.412Z,40.65
2022-12-09T18:13:54.121Z,38.75
2022-12-09T18:18:56.241Z,44.40
2022-12-09T18:23:58.074Z,41.17
2022-12-09T18:29:00.270Z,36.40
2022-12-09T18:34:02.141Z,50.80
2022-12-09T18:39:05.202Z,41.42
2022-12-09T18:44:08.768Z,43.38
2022-12-09T18:49:13.711Z,35.30
2022-12-09T18:54:22.850Z,41.20
2022-12-09T18:59:26.393Z,37.50
2022-12-09T19:04:29.798Z,36.95
2022-12-09T19:09:34.798Z,35.88
2022-12-09T19:14:42.194Z,36.20
2022-12-09T19:19:46.481Z,40.65
2022-12-09T19:24:48.279Z,39.70
2022-12-09T19:29:51.057Z,40.08
2022-12-09T19:34:53.065Z,41.00
2022-12-09T19:39:57.090Z,38.40
2022-12-09T19:45:01.980Z,37.60
2022-12-09T19:50:05.535Z,40.13
2022-12-09T19:55:08.481Z,49.13
2022-12-09T20:00:11.414Z,38.40
2022-12-09T20:05:13.211Z,39.55
2022-12-09T20:10:15.090Z,36.03
2022-12-09T20:15:17.156Z,39.80
2022-12-09T20:20:18.853Z,43.45
2022-12-09T20:25:20.688Z,45.17
2022-12-09T20:30:22.361Z,40.65
2022-12-09T20:35:26.396Z,48.38
2022-12-09T20:40:28.263Z,49.00
2022-12-09T20:45:30.096Z,47.35
2022-12-09T20:50:38.220Z,51.05
2022-12-09T20:55:40.595Z,47.33
2022-12-09T21:00:42.463Z,50.15
2022-12-09T21:05:44.265Z,50.55
2022-12-09T21:10:46.137Z,45.28
2022-12-09T21:15:47.992Z,43.63
2022-12-09T21:20:49.797Z,41.42
2022-12-09T21:25:51.828Z,41.17
2022-12-09T21:30:53.763Z,39.97
2022-12-09T21:35:55.551Z,39.63
2022-12-09T21:41:01.985Z,43.50
2022-12-09T21:46:07.350Z,43.25
2022-12-09T21:51:11.260Z,41.53
2022-12-09T21:56:16.453Z,42.63
2022-12-09T22:01:20.957Z,40.58
2022-12-09T22:06:23.472Z,42.45
2022-12-09T22:11:27.906Z,43.05
2022-12-09T22:16:39.040Z,44.70
2022-12-09T22:21:41.032Z,43.08
2022-12-09T22:26:46.107Z,43.75
2022-12-09T22:31:47.909Z,46.28
2022-12-09T22:36:50.104Z,44.65
2022-12-09T22:41:51.767Z,41.30
2022-12-09T22:46:53.921Z,40.47
2022-12-09T22:52:00.402Z,43.40
2022-12-09T22:57:02.493Z,47.47
2022-12-09T23:02:04.317Z,43.97
2022-12-09T23:07:06.100Z,42.20
2022-12-09T23:12:08.073Z,43.85
2022-12-09T23:17:09.726Z,42.58
2022-12-09T23:22:11.370Z,45.50
2022-12-09T23:27:13.047Z,45.58
2022-12-09T23:32:14.717Z,48.85
2022-12-09T23:37:16.452Z,46.50
2022-12-09T23:42:19.653Z,48.25
2022-12-09T23:47:21.372Z,51.35
2022-12-09T23:52:22.972Z,44.35
2022-12-09T23:57:24.574Z,41.80
